Time;durP1;ratioP1;P1;durP2;ratioP2;P2;SDS_P1;SDS_P2;PMS_P1;PMS_P2;Temp;Humidity;BMP_temperature;BMP_pressure;BME280_temperature;BME280_humidity;BME280_pressure;Samples;Min_cycle;Max_cycle;Signal;HPM_P1;HPM_P2
2023/05/24 00:01:41;;;;;;;12.57;2.00;;;9.80;78.60;;;;;;4944459;28;20031;-77
2023/05/24 00:04:07;;;;;;;11.93;2.23;;;9.80;79.00;;;;;;4960255;28;20057;-77
2023/05/24 00:06:36;;;;;;;14.67;1.40;;;9.70;79.10;;;;;;4977494;28;20034;-77
2023/05/24 00:09:05;;;;;;;10.10;1.50;;;9.70;79.40;;;;;;4976108;28;20026;-77
2023/05/24 00:11:30;;;;;;;15.63;1.90;;;9.70;79.60;;;;;;4960125;28;20054;-77
2023/05/24 00:13:56;;;;;;;12.20;1.80;;;9.70;79.80;;;;;;4977413;28;20062;-77
2023/05/24 00:16:22;;;;;;;9.37;2.03;;;9.70;80.10;;;;;;4959965;28;20074;-77
2023/05/24 00:18:48;;;;;;;11.60;1.60;;;9.70;80.00;;;;;;4976130;28;20042;-78
2023/05/24 00:21:14;;;;;;;10.57;1.33;;;9.70;80.00;;;;;;4991973;28;20145;-77
2023/05/24 00:23:41;;;;;;;9.97;1.53;;;9.70;80.20;;;;;;4960013;28;20053;-77
2023/05/24 00:26:07;;;;;;;13.83;1.23;;;9.60;80.30;;;;;;4977009;28;20022;-77
2023/05/24 00:28:34;;;;;;;12.70;1.23;;;9.60;80.50;;;;;;4977157;28;20059;-77
2023/05/24 00:31:00;;;;;;;7.47;1.27;;;9.60;80.60;;;;;;4977016;28;20050;-77
2023/05/24 00:33:26;;;;;;;10.50;1.50;;;9.60;80.90;;;;;;4976990;28;20404;-77
2023/05/24 00:35:55;;;;;;;12.17;2.20;;;9.60;81.00;;;;;;4975655;28;20035;-77
2023/05/24 00:38:25;;;;;;;10.47;1.53;;;9.70;81.30;;;;;;4975530;28;20035;-77
2023/05/24 00:40:51;;;;;;;8.90;1.63;;;9.50;81.30;;;;;;4991294;28;20026;-77
2023/05/24 00:43:18;;;;;;;10.50;1.70;;;9.50;81.50;;;;;;4991891;28;20031;-77
2023/05/24 00:45:44;;;;;;;11.47;2.27;;;9.50;81.70;;;;;;4975581;28;20031;-77
2023/05/24 00:48:10;;;;;;;13.33;1.70;;;9.40;81.80;;;;;;4959794;28;20041;-77
2023/05/24 00:50:38;;;;;;;10.50;1.73;;;9.40;82.70;;;;;;4976717;28;20023;-77
2023/05/24 00:53:04;;;;;;;6.50;1.60;;;9.30;82.10;;;;;;4975435;28;20086;-77
2023/05/24 00:55:30;;;;;;;11.40;1.97;;;9.30;82.00;;;;;;4975413;28;20031;-77
2023/05/24 00:57:59;;;;;;;10.13;1.80;;;9.40;82.20;;;;;;4975170;28;20037;-78
2023/05/24 01:00:26;;;;;;;9.50;1.70;;;9.30;82.30;;;;;;4959224;28;20037;-77
2023/05/24 01:02:53;;;;;;;14.00;2.00;;;9.20;82.50;;;;;;4959307;28;20454;-77
2023/05/24 01:05:20;;;;;;;14.03;2.47;;;9.20;82.60;;;;;;4959099;28;20031;-77
2023/05/24 01:08:08;;;;;;;13.53;1.83;;;9.20;82.90;;;;;;4976467;28;20115;-77
2023/05/24 01:10:52;;;;;;;10.60;2.47;;;9.10;83.10;;;;;;4976242;28;20471;-77
2023/05/24 01:13:30;;;;;;;9.93;1.88;;;9.10;83.30;;;;;;4991503;28;20502;-77
2023/05/24 01:16:04;;;;;;;9.00;2.03;;;9.10;83.30;;;;;;4976292;28;20035;-77
2023/05/24 01:18:36;;;;;;;;;;;9.00;83.30;;;;;;4991664;28;20031;-77
2023/05/24 01:21:21;;;;;;;12.27;2.00;;;9.00;83.60;;;;;;4975951;28;19918;-77
2023/05/24 01:23:59;;;;;;;;;;;8.90;83.70;;;;;;4991489;28;20046;-77
2023/05/24 01:26:31;;;;;;;8.10;1.73;;;8.90;83.90;;;;;;4975970;28;19910;-78
2023/05/24 01:28:58;;;;;;;13.63;2.90;;;8.80;83.60;;;;;;4974619;28;20110;-77
2023/05/24 01:31:24;;;;;;;9.47;1.67;;;8.80;83.70;;;;;;4974855;28;20031;-77
2023/05/24 01:33:50;;;;;;;15.80;2.50;;;8.70;83.80;;;;;;4976014;28;20487;-77
2023/05/24 01:36:15;;;;;;;14.67;2.20;;;8.70;84.10;;;;;;4990836;28;20089;-77
2023/05/24 01:38:42;;;;;;;12.53;2.37;;;8.60;84.20;;;;;;4958745;28;20042;-77
2023/05/24 01:41:19;;;;;;;10.33;2.70;;;8.60;84.50;;;;;;4958579;28;20130;-77
2023/05/24 01:44:25;;;;;;;8.77;2.17;;;8.60;84.80;;;;;;4974543;28;20067;-77
2023/05/24 01:47:01;;;;;;;9.10;1.73;;;8.60;84.90;;;;;;4970433;28;20078;-77
2023/05/24 01:49:32;;;;;;;8.30;2.27;;;8.50;85.10;;;;;;4974367;28;20035;-77
2023/05/24 01:52:02;;;;;;;12.90;2.83;;;8.50;85.30;;;;;;4989640;28;20030;-77
2023/05/24 01:54:32;;;;;;;9.10;1.87;;;8.40;85.50;;;;;;4974335;28;20035;-78
2023/05/24 01:56:59;;;;;;;7.80;1.87;;;8.40;85.70;;;;;;4990481;28;20396;-77
2023/05/24 01:59:27;;;;;;;10.13;2.10;;;8.40;86.00;;;;;;4974178;28;20027;-77
2023/05/24 02:01:53;;;;;;;14.20;3.23;;;8.40;86.20;;;;;;4974136;28;20030;-77
2023/05/24 02:04:19;;;;;;;13.17;2.57;;;8.40;86.40;;;;;;4958026;28;20030;-77
2023/05/24 02:06:44;;;;;;;12.80;2.67;;;8.50;86.60;;;;;;4975360;28;20027;-87
2023/05/24 02:09:10;;;;;;;9.57;2.80;;;8.40;86.70;;;;;;4975415;28;20035;-86
2023/05/24 02:11:36;;;;;;;9.23;2.40;;;8.50;87.00;;;;;;4974076;28;20027;-87
2023/05/24 02:14:01;;;;;;;10.63;3.57;;;8.50;87.10;;;;;;4975397;28;20035;-87
2023/05/24 02:16:29;;;;;;;15.47;3.67;;;8.40;87.90;;;;;;4958010;28;20030;-87
2023/05/24 02:18:55;;;;;;;15.60;4.30;;;8.50;87.60;;;;;;4974059;28;20035;-86
2023/05/24 02:21:22;;;;;;;14.03;3.40;;;8.40;87.50;;;;;;4973739;28;20062;-87
2023/05/24 02:23:48;;;;;;;11.50;3.17;;;8.50;87.70;;;;;;4958125;28;20034;-86
2023/05/24 02:26:14;;;;;;;14.10;2.73;;;8.50;87.80;;;;;;4957697;28;20042;-87
2023/05/24 02:28:40;;;;;;;24.80;4.30;;;8.40;88.00;;;;;;4975001;28;20031;-87
2023/05/24 02:31:05;;;;;;;19.30;3.70;;;8.40;88.20;;;;;;4973779;28;20067;-87
2023/05/24 02:33:32;;;;;;;14.53;3.63;;;8.50;88.60;;;;;;4973758;28;20059;-87
2023/05/24 02:35:58;;;;;;;19.80;4.17;;;8.40;88.70;;;;;;4973811;28;20125;-87
2023/05/24 02:38:23;;;;;;;14.03;3.77;;;8.40;89.00;;;;;;4975004;28;20118;-86
2023/05/24 02:40:49;;;;;;;9.47;2.77;;;8.40;89.10;;;;;;4973654;28;20499;-86
2023/05/24 02:43:15;;;;;;;12.90;3.93;;;8.40;89.40;;;;;;4973876;28;20037;-85
2023/05/24 02:45:40;;;;;;;11.60;3.20;;;8.40;89.70;;;;;;4974709;28;20101;-86
2023/05/24 02:48:06;;;;;;;9.50;2.97;;;8.40;90.00;;;;;;4975258;28;20034;-87
2023/05/24 02:50:32;;;;;;;14.47;3.87;;;8.40;90.10;;;;;;4975266;28;20439;-87
2023/05/24 02:52:58;;;;;;;10.37;2.90;;;8.30;90.10;;;;;;4973709;28;20407;-87
2023/05/24 02:55:23;;;;;;;16.53;3.87;;;8.30;90.20;;;;;;4973525;28;20035;-87
2023/05/24 02:57:50;;;;;;;9.50;2.87;;;8.30;90.30;;;;;;4973322;28;20129;-86
2023/05/24 03:00:17;;;;;;;14.80;3.50;;;8.30;90.50;;;;;;4973396;28;20045;-87
2023/05/24 03:02:46;;;;;;;10.47;3.20;;;8.30;90.60;;;;;;4973453;28;20459;-87
2023/05/24 03:05:12;;;;;;;12.80;3.30;;;8.30;90.70;;;;;;4973193;28;20089;-87
2023/05/24 03:07:37;;;;;;;10.97;3.50;;;8.30;90.80;;;;;;4973209;28;20031;-86
2023/05/24 03:10:03;;;;;;;11.13;3.40;;;8.30;91.00;;;;;;4977537;28;20050;-87
2023/05/24 03:12:29;;;;;;;11.50;3.20;;;8.30;91.10;;;;;;4991917;28;20018;-87
2023/05/24 03:14:54;;;;;;;13.77;3.03;;;8.20;91.10;;;;;;4975062;28;20053;-86
2023/05/24 03:17:20;;;;;;;15.13;3.67;;;8.20;91.20;;;;;;4990975;28;20038;-86
2023/05/24 03:19:46;;;;;;;11.23;3.40;;;8.20;91.30;;;;;;4992151;28;20105;-86
2023/05/24 03:22:11;;;;;;;12.67;3.23;;;8.20;91.40;;;;;;4976376;28;20050;-86
2023/05/24 03:24:37;;;;;;;13.77;3.57;;;8.20;91.50;;;;;;4991676;28;20509;-85
2023/05/24 03:27:04;;;;;;;11.40;3.43;;;8.10;91.50;;;;;;4993972;28;20089;-86
2023/05/24 03:29:30;;;;;;;11.77;3.77;;;8.10;91.60;;;;;;4976644;28;20046;-83
2023/05/24 03:31:56;;;;;;;12.97;4.13;;;8.10;91.70;;;;;;4976577;28;20070;-86
2023/05/24 03:34:21;;;;;;;14.00;4.80;;;8.00;91.80;;;;;;4992744;28;20038;-86
2023/05/24 03:36:47;;;;;;;14.40;4.10;;;8.00;92.00;;;;;;4992603;28;20064;-86
2023/05/24 03:39:12;;;;;;;10.13;3.87;;;7.90;92.00;;;;;;4992562;28;20034;-86
2023/05/24 03:41:38;;;;;;;15.30;4.70;;;7.90;92.20;;;;;;4976271;28;20419;-86
2023/05/24 03:44:04;;;;;;;12.03;3.77;;;7.90;92.20;;;;;;4993664;28;20474;-86
2023/05/24 03:46:29;;;;;;;11.80;3.47;;;7.90;92.30;;;;;;4993766;28;20513;-86
2023/05/24 03:48:55;;;;;;;13.00;4.00;;;7.90;92.50;;;;;;4992323;28;20026;-86
2023/05/24 03:51:28;;;;;;;10.03;3.80;;;7.90;92.60;;;;;;4992437;28;20033;-86
2023/05/24 03:53:56;;;;;;;13.10;4.93;;;7.90;92.70;;;;;;4993497;28;20046;-86
2023/05/24 03:56:22;;;;;;;9.30;3.23;;;7.90;92.80;;;;;;4993489;28;20038;-86
2023/05/24 03:58:48;;;;;;;16.10;3.83;;;7.90;93.00;;;;;;4976292;28;20113;-86
2023/05/24 04:01:14;;;;;;;12.50;4.33;;;7.90;93.30;;;;;;4993594;28;20368;-77
2023/05/24 04:03:40;;;;;;;12.87;4.27;;;7.90;93.40;;;;;;4993236;28;20040;-78
2023/05/24 04:06:05;;;;;;;11.63;4.10;;;7.80;93.50;;;;;;4975975;28;20109;-77
2023/05/24 04:08:31;;;;;;;13.57;4.30;;;7.90;93.70;;;;;;4976007;28;20036;-76
2023/05/24 04:10:57;;;;;;;14.80;4.47;;;7.90;93.80;;;;;;4993422;28;20038;-76
2023/05/24 04:13:22;;;;;;;13.07;4.07;;;7.90;93.90;;;;;;4992059;28;20034;-77
2023/05/24 04:15:48;;;;;;;12.10;3.53;;;7.90;94.00;;;;;;4977195;28;20475;-76
2023/05/24 04:18:14;;;;;;;14.90;3.80;;;7.90;94.10;;;;;;4979316;28;20030;-77
2023/05/24 04:20:40;;;;;;;21.10;4.33;;;7.90;94.30;;;;;;4979172;28;20062;-77
2023/05/24 04:23:05;;;;;;;24.33;4.50;;;8.00;94.50;;;;;;4996704;28;20035;-77
2023/05/24 04:25:32;;;;;;;13.97;4.10;;;8.00;94.90;;;;;;4996500;28;20029;-77
2023/05/24 04:27:59;;;;;;;13.60;4.33;;;8.00;94.80;;;;;;4979497;28;20031;-77
2023/05/24 04:30:24;;;;;;;16.47;4.13;;;8.00;94.90;;;;;;4995297;28;20382;-77
2023/05/24 04:32:50;;;;;;;17.27;4.77;;;7.90;94.90;;;;;;4996399;28;20031;-77
2023/05/24 04:35:16;;;;;;;17.43;4.23;;;8.10;95.20;;;;;;4996448;28;20479;-77
2023/05/24 04:37:41;;;;;;;17.77;4.10;;;8.10;95.30;;;;;;4996101;28;20022;-76
2023/05/24 04:40:08;;;;;;;19.20;4.33;;;8.10;95.40;;;;;;4983892;28;20085;-77
2023/05/24 04:42:34;;;;;;;15.00;5.50;;;8.10;95.50;;;;;;4985091;28;20014;-74
2023/05/24 04:45:00;;;;;;;17.33;3.93;;;8.20;95.60;;;;;;4985449;28;20379;-75
2023/05/24 04:47:25;;;;;;;13.13;4.47;;;8.20;95.70;;;;;;4983729;28;20015;-75
2023/05/24 04:49:51;;;;;;;17.10;4.73;;;8.30;96.10;;;;;;5001618;28;20026;-76
2023/05/24 04:52:17;;;;;;;17.73;4.77;;;8.30;95.90;;;;;;4983034;28;20391;-75
2023/05/24 04:54:43;;;;;;;15.60;4.87;;;8.30;96.00;;;;;;4994109;28;20026;-75
2023/05/24 04:57:08;;;;;;;14.30;4.23;;;8.40;96.10;;;;;;4982891;28;20368;-75
2023/05/24 04:59:34;;;;;;;18.63;4.03;;;8.40;96.30;;;;;;4990379;28;20480;-75
2023/05/24 05:02:00;;;;;;;16.13;4.87;;;8.40;96.40;;;;;;4985976;28;20428;-76
2023/05/24 05:04:25;;;;;;;14.30;4.30;;;8.50;96.50;;;;;;4976541;28;20038;-75
2023/05/24 05:06:51;;;;;;;16.17;4.20;;;8.50;96.50;;;;;;4975170;28;20357;-75
2023/05/24 05:09:17;;;;;;;15.00;4.27;;;8.60;96.60;;;;;;4976414;28;20030;-75
2023/05/24 05:11:44;;;;;;;15.47;4.20;;;8.60;96.80;;;;;;4975208;28;20023;-86
2023/05/24 05:14:10;;;;;;;14.23;3.93;;;8.60;96.90;;;;;;4976297;28;20023;-85
2023/05/24 05:16:37;;;;;;;17.47;5.07;;;8.70;96.90;;;;;;4976137;28;20117;-86
2023/05/24 05:19:04;;;;;;;20.90;5.57;;;8.80;97.00;;;;;;4975020;28;20074;-87
2023/05/24 05:21:33;;;;;;;16.03;4.03;;;8.80;97.00;;;;;;4994951;28;20117;-86
2023/05/24 05:23:59;;;;;;;13.43;4.03;;;8.90;97.10;;;;;;5010756;28;20038;-85
2023/05/24 05:26:29;;;;;;;20.10;4.53;;;8.90;97.20;;;;;;5010594;28;20543;-86
2023/05/24 05:28:56;;;;;;;19.23;4.90;;;8.90;97.20;;;;;;4995630;28;20050;-84
2023/05/24 05:31:22;;;;;;;17.07;5.17;;;9.00;97.30;;;;;;4993813;28;20117;-85
2023/05/24 05:33:48;;;;;;;20.60;4.40;;;9.00;97.40;;;;;;4995421;28;20054;-81
2023/05/24 05:36:14;;;;;;;19.30;5.20;;;9.10;97.70;;;;;;4995485;28;20430;-83
2023/05/24 05:38:39;;;;;;;23.63;5.30;;;9.10;98.00;;;;;;4994028;28;20066;-75
2023/05/24 05:41:06;;;;;;;26.27;4.70;;;9.30;98.10;;;;;;5010412;28;20443;-75
2023/05/24 05:43:31;;;;;;;20.73;5.00;;;9.20;98.30;;;;;;4993794;28;20058;-74
2023/05/24 05:45:57;;;;;;;15.73;5.27;;;9.30;98.30;;;;;;4994992;28;20487;-74
2023/05/24 05:48:23;;;;;;;17.83;5.70;;;9.30;98.30;;;;;;4993605;28;20510;-75
2023/05/24 05:50:48;;;;;;;24.20;5.00;;;9.40;98.30;;;;;;4993692;28;20037;-74
2023/05/24 05:53:15;;;;;;;15.53;4.27;;;9.40;98.30;;;;;;4988068;28;20023;-75
2023/05/24 05:55:41;;;;;;;18.30;5.00;;;9.50;98.30;;;;;;4993301;28;20041;-75
2023/05/24 05:58:06;;;;;;;18.07;4.87;;;9.50;98.40;;;;;;4990228;28;20027;-75
2023/05/24 06:00:32;;;;;;;16.63;3.80;;;9.60;98.60;;;;;;4985154;28;20034;-75
2023/05/24 06:02:58;;;;;;;19.27;4.77;;;9.70;98.80;;;;;;4980275;28;20034;-75
2023/05/24 06:05:23;;;;;;;15.70;4.67;;;9.70;98.90;;;;;;4993278;28;20038;-75
2023/05/24 06:07:49;;;;;;;16.40;4.63;;;9.80;99.20;;;;;;4992707;28;20097;-74
2023/05/24 06:10:14;;;;;;;20.93;5.07;;;9.90;99.30;;;;;;4994544;28;20022;-75
2023/05/24 06:12:40;;;;;;;22.37;4.70;;;10.00;99.50;;;;;;4993184;28;20364;-75
2023/05/24 06:15:06;;;;;;;19.87;4.87;;;10.10;99.50;;;;;;4994515;28;20081;-74
2023/05/24 06:17:33;;;;;;;18.00;4.60;;;10.10;99.50;;;;;;4994326;28;20019;-73
2023/05/24 06:19:59;;;;;;;15.67;4.93;;;10.30;99.60;;;;;;4994244;28;20540;-75
2023/05/24 06:22:26;;;;;;;24.57;4.90;;;10.40;99.50;;;;;;4992902;28;20038;-74
2023/05/24 06:24:52;;;;;;;18.27;4.47;;;10.50;99.50;;;;;;4994177;28;20029;-76
2023/05/24 06:27:18;;;;;;;18.60;4.27;;;10.60;99.50;;;;;;4994113;28;20042;-84
2023/05/24 06:29:44;;;;;;;17.70;4.28;;;10.70;99.30;;;;;;4994162;28;20038;-83
2023/05/24 06:32:10;;;;;;;15.10;4.60;;;10.80;99.60;;;;;;4976976;28;20113;-81
2023/05/24 06:34:36;;;;;;;17.70;4.80;;;10.80;99.40;;;;;;4994178;28;20109;-83
2023/05/24 06:37:01;;;;;;;18.48;3.80;;;10.90;98.90;;;;;;4993125;28;20037;-83
2023/05/24 06:39:27;;;;;;;14.93;3.70;;;11.00;98.80;;;;;;4993917;28;20033;-84
2023/05/24 06:41:53;;;;;;;14.95;3.97;;;11.00;98.70;;;;;;4992992;28;20037;-83
2023/05/24 06:44:18;;;;;;;13.05;3.30;;;11.10;98.60;;;;;;4976739;28;20113;-83
2023/05/24 06:46:44;;;;;;;22.60;4.07;;;11.20;98.60;;;;;;4994224;28;20058;-83
2023/05/24 06:49:11;;;;;;;13.38;3.88;;;11.30;98.50;;;;;;4994085;28;20483;-84
2023/05/24 06:51:37;;;;;;;15.52;3.58;;;11.40;98.50;;;;;;4994201;28;20026;-84
2023/05/24 06:54:02;;;;;;;14.10;3.45;;;11.60;98.50;;;;;;4992701;28;20026;-83
2023/05/24 06:56:28;;;;;;;15.45;3.22;;;11.70;98.40;;;;;;4992781;28;20026;-82
2023/05/24 06:58:54;;;;;;;18.30;3.97;;;11.80;98.20;;;;;;4993025;28;20050;-83
2023/05/24 07:01:21;;;;;;;21.40;4.25;;;12.00;98.00;;;;;;4993905;28;20033;-84
2023/05/24 07:03:46;;;;;;;16.00;3.67;;;12.10;97.80;;;;;;4976639;28;20037;-84
2023/05/24 07:06:13;;;;;;;22.00;4.10;;;12.20;97.50;;;;;;4993791;28;20083;-83
2023/05/24 07:08:41;;;;;;;15.55;3.40;;;12.40;97.40;;;;;;4993882;28;20030;-83
2023/05/24 07:11:08;;;;;;;13.15;3.80;;;12.50;97.40;;;;;;4992736;28;20430;-84
2023/05/24 07:13:34;;;;;;;11.98;3.28;;;12.60;96.90;;;;;;4993873;28;20026;-83
2023/05/24 07:15:59;;;;;;;14.70;3.45;;;12.70;96.70;;;;;;4993771;28;20034;-82
2023/05/24 07:18:25;;;;;;;12.52;2.67;;;12.80;96.50;;;;;;4993662;28;20082;-83
2023/05/24 07:20:51;;;;;;;17.58;3.58;;;12.90;96.20;;;;;;4993449;28;20043;-84
2023/05/24 07:23:17;;;;;;;14.38;4.32;;;13.00;95.90;;;;;;4993744;28;20041;-83
2023/05/24 07:25:42;;;;;;;16.38;2.72;;;13.20;95.60;;;;;;4993635;28;20506;-84
2023/05/24 07:28:08;;;;;;;12.80;2.83;;;13.30;95.50;;;;;;4993797;28;20049;-81
2023/05/24 07:30:34;;;;;;;14.65;3.50;;;13.40;95.10;;;;;;4992689;28;20077;-82
2023/05/24 07:33:00;;;;;;;12.23;3.10;;;13.50;94.60;;;;;;4992530;28;20097;-82
2023/05/24 07:35:28;;;;;;;15.73;2.65;;;13.60;94.30;;;;;;5008741;28;20032;-81
2023/05/24 07:37:53;;;;;;;9.60;2.50;;;13.70;94.10;;;;;;4993750;28;20030;-83
2023/05/24 07:40:20;;;;;;;14.52;3.58;;;13.70;93.40;;;;;;4993622;28;20372;-80
2023/05/24 07:42:46;;;;;;;17.58;3.85;;;13.70;92.80;;;;;;4993578;28;20034;-82
2023/05/24 07:45:12;;;;;;;19.27;3.88;;;13.60;92.60;;;;;;4993502;28;20562;-81
2023/05/24 07:47:37;;;;;;;17.02;3.63;;;13.50;92.10;;;;;;4993601;28;20109;-84
2023/05/24 07:50:03;;;;;;;14.13;3.80;;;13.50;92.10;;;;;;4993850;28;20065;-83
2023/05/24 07:52:30;;;;;;;18.92;3.13;;;13.50;92.00;;;;;;4997500;28;20054;-82
2023/05/24 07:54:55;;;;;;;17.98;5.30;;;13.50;91.90;;;;;;4995955;28;20032;-81
2023/05/24 07:57:21;;;;;;;14.63;3.30;;;13.50;91.60;;;;;;4980071;28;20120;-82
2023/05/24 07:59:47;;;;;;;14.48;2.90;;;13.50;91.60;;;;;;4997171;28;20113;-83
2023/05/24 08:02:14;;;;;;;16.35;3.42;;;13.50;91.50;;;;;;4997166;28;20357;-84
2023/05/24 08:04:40;;;;;;;15.32;2.60;;;13.60;91.50;;;;;;4997165;28;20030;-80
2023/05/24 08:07:06;;;;;;;19.90;3.95;;;13.60;91.50;;;;;;4979559;28;20391;-81
2023/05/24 08:09:36;;;;;;;15.70;3.65;;;13.70;91.10;;;;;;4995760;28;20022;-84
2023/05/24 08:12:04;;;;;;;15.05;2.35;;;13.80;90.70;;;;;;4996881;28;20460;-81
2023/05/24 08:14:30;;;;;;;12.57;2.45;;;13.90;90.50;;;;;;4996912;28;20018;-83
2023/05/24 08:16:55;;;;;;;11.77;4.38;;;14.00;90.20;;;;;;4996879;28;20085;-82
2023/05/24 08:19:22;;;;;;;12.48;3.15;;;14.00;90.00;;;;;;4979470;28;20034;-83
2023/05/24 08:21:47;;;;;;;11.85;2.90;;;14.10;89.80;;;;;;4996628;28;20049;-83
2023/05/24 08:24:13;;;;;;;12.07;2.60;;;14.20;89.40;;;;;;4996634;28;20035;-84
2023/05/24 08:26:39;;;;;;;11.85;3.25;;;14.40;89.10;;;;;;4979422;28;20035;-83
2023/05/24 08:29:04;;;;;;;18.55;3.55;;;14.50;88.30;;;;;;4996567;28;20057;-82
2023/05/24 08:31:33;;;;;;;11.88;2.42;;;14.60;87.90;;;;;;4996509;28;20026;-82
2023/05/24 08:34:00;;;;;;;9.48;2.50;;;14.70;86.90;;;;;;4995258;28;20037;-82
2023/05/24 08:36:25;;;;;;;8.48;2.22;;;14.80;85.90;;;;;;4979092;28;20447;-82
2023/05/24 08:38:51;;;;;;;14.00;2.45;;;14.80;85.80;;;;;;4996381;28;20168;-82
2023/05/24 08:41:16;;;;;;;17.50;3.05;;;14.90;84.80;;;;;;4978945;28;20038;-83
2023/05/24 08:43:43;;;;;;;12.57;2.65;;;15.00;84.30;;;;;;4995211;28;20061;-82
2023/05/24 08:46:11;;;;;;;12.60;2.15;;;15.10;83.70;;;;;;4996324;28;20026;-83
2023/05/24 08:48:45;;;;;;;14.32;2.42;;;15.10;83.30;;;;;;4995192;28;20390;-83
2023/05/24 08:51:14;;;;;;;13.18;2.78;;;15.10;82.30;;;;;;4996239;28;20026;-82
2023/05/24 08:53:40;;;;;;;9.13;2.83;;;15.10;81.50;;;;;;4996239;28;20046;-83
2023/05/24 08:56:09;;;;;;;12.25;2.08;;;15.10;80.90;;;;;;4994678;28;20466;-81
2023/05/24 08:58:37;;;;;;;12.25;2.15;;;15.20;81.00;;;;;;4996037;28;20026;-82
2023/05/24 09:01:05;;;;;;;11.25;1.92;;;15.20;79.30;;;;;;4995657;28;20039;-83
2023/05/24 09:03:32;;;;;;;11.85;2.28;;;15.30;78.70;;;;;;4995991;28;20031;-82
2023/05/24 09:05:59;;;;;;;9.05;1.90;;;15.40;78.40;;;;;;4996019;28;20035;-82
2023/05/24 09:08:27;;;;;;;14.38;2.30;;;15.50;78.30;;;;;;4994620;28;20022;-81
2023/05/24 09:10:54;;;;;;;9.40;3.00;;;15.60;78.00;;;;;;4995908;28;20026;-80
2023/05/24 09:13:21;;;;;;;11.77;3.03;;;15.60;78.00;;;;;;4994851;28;20066;-81
2023/05/24 09:15:47;;;;;;;8.18;2.08;;;15.70;77.30;;;;;;4995935;28;20026;-82
2023/05/24 09:18:12;;;;;;;12.40;2.83;;;15.60;77.20;;;;;;4994675;28;20398;-82
2023/05/24 09:20:38;;;;;;;12.30;2.58;;;15.60;77.00;;;;;;4978124;28;20042;-81
2023/05/24 09:23:06;;;;;;;13.48;3.05;;;15.60;76.90;;;;;;4994594;28;20468;-80
2023/05/24 09:25:32;;;;;;;11.98;2.58;;;15.50;76.70;;;;;;4995533;28;20145;-82
2023/05/24 09:27:57;;;;;;;12.75;2.95;;;15.50;77.20;;;;;;4995556;28;20093;-80
2023/05/24 09:30:23;;;;;;;14.00;2.80;;;15.40;77.00;;;;;;4995320;28;20034;-80
2023/05/24 09:32:59;;;;;;;15.77;3.45;;;15.30;77.30;;;;;;4995318;28;20028;-82
2023/05/24 09:35:26;;;;;;;10.80;2.83;;;15.20;77.20;;;;;;4995425;28;20491;-81
2023/05/24 09:37:58;;;;;;;13.80;2.10;;;15.20;77.60;;;;;;4995492;28;20034;-82
2023/05/24 09:40:25;;;;;;;11.88;2.13;;;15.10;77.90;;;;;;4995391;28;20030;-80
2023/05/24 09:43:02;;;;;;;13.45;2.70;;;15.10;78.00;;;;;;4993887;28;20096;-83
2023/05/24 09:45:28;;;;;;;8.85;2.17;;;15.10;78.00;;;;;;4993966;28;20030;-81
2023/05/24 09:47:53;;;;;;;16.88;2.78;;;15.10;77.80;;;;;;4995178;28;20542;-82
2023/05/24 09:50:19;;;;;;;14.35;2.88;;;15.10;77.60;;;;;;4993794;28;20050;-78
2023/05/24 09:52:45;;;;;;;10.18;2.33;;;15.10;77.60;;;;;;4995282;28;20018;-84
2023/05/24 09:55:19;;;;;;;10.75;2.13;;;15.20;77.50;;;;;;4993596;28;20037;-82
2023/05/24 09:58:01;;;;;;;9.15;2.50;;;15.30;77.50;;;;;;4993566;28;20027;-83
2023/05/24 10:00:27;;;;;;;13.82;2.38;;;15.30;77.40;;;;;;4994840;28;20026;-83
2023/05/24 10:03:07;;;;;;;12.45;2.45;;;15.40;77.00;;;;;;4986290;28;20058;-83
2023/05/24 10:05:34;;;;;;;13.15;2.10;;;15.40;77.00;;;;;;4979440;28;20540;-83
2023/05/24 10:08:01;;;;;;;11.05;2.25;;;15.50;77.00;;;;;;4992383;28;20118;-83
2023/05/24 10:10:28;;;;;;;13.75;2.95;;;15.50;76.70;;;;;;4993736;28;20153;-82
2023/05/24 10:12:55;;;;;;;9.77;2.05;;;15.50;76.10;;;;;;4983056;28;20451;-82
2023/05/24 10:15:21;;;;;;;10.60;2.08;;;15.50;75.90;;;;;;4983891;28;20487;-83
2023/05/24 10:17:47;;;;;;;10.25;1.90;;;15.50;75.80;;;;;;5008150;28;20027;-83
2023/05/24 10:20:13;;;;;;;9.07;1.95;;;15.50;76.50;;;;;;4992444;28;20077;-83
2023/05/24 10:22:47;;;;;;;11.50;2.47;;;15.60;75.80;;;;;;5007871;28;20348;-82
2023/05/24 10:25:24;;;;;;;;;;;15.60;75.70;;;;;;4988361;28;20030;-84
2023/05/24 10:27:54;;;;;;;9.23;1.77;;;15.70;74.50;;;;;;4983035;28;20280;-83
2023/05/24 10:30:32;;;;;;;8.98;1.73;;;15.70;74.40;;;;;;4982466;28;20029;-83
2023/05/24 10:32:59;;;;;;;9.13;1.80;;;15.80;73.90;;;;;;4984049;28;20022;-83
2023/05/24 10:35:27;;;;;;;8.68;1.27;;;15.80;73.10;;;;;;4982973;28;20035;-81
2023/05/24 10:37:53;;;;;;;12.98;1.90;;;15.90;73.10;;;;;;4980801;28;20420;-82
2023/05/24 10:40:25;;;;;;;10.73;2.65;;;15.90;72.70;;;;;;4991088;28;20054;-83
2023/05/24 10:42:55;;;;;;;8.90;2.20;;;16.00;72.70;;;;;;4994161;28;20425;-82
2023/05/24 10:45:26;;;;;;;11.50;2.65;;;16.10;72.50;;;;;;4990064;28;20042;-82
2023/05/24 10:47:55;;;;;;;7.97;1.88;;;16.20;72.30;;;;;;4978587;28;20106;-82
2023/05/24 10:50:21;;;;;;;8.82;1.73;;;16.30;71.80;;;;;;4989246;28;20391;-83
2023/05/24 10:52:50;;;;;;;8.73;1.80;;;16.30;71.00;;;;;;4974817;28;20022;-83
2023/05/24 10:55:18;;;;;;;7.35;1.55;;;16.40;71.00;;;;;;4989633;28;20041;-83
2023/05/24 10:57:44;;;;;;;6.72;1.42;;;16.40;71.00;;;;;;4974567;28;20027;-81
2023/05/24 11:00:19;;;;;;;11.35;1.92;;;16.50;70.80;;;;;;4974539;28;20085;-83
2023/05/24 11:02:48;;;;;;;11.10;2.03;;;16.50;70.40;;;;;;4974572;28;20027;-83
2023/05/24 11:05:14;;;;;;;6.60;1.83;;;16.60;69.80;;;;;;4972991;28;20106;-82
2023/05/24 11:07:43;;;;;;;9.75;1.92;;;16.70;69.60;;;;;;4974362;28;20484;-81
2023/05/24 11:10:15;;;;;;;5.95;1.40;;;16.90;69.70;;;;;;4973279;28;20023;-83
2023/05/24 11:12:43;;;;;;;6.40;1.60;;;17.10;69.10;;;;;;5007236;28;20036;-82
2023/05/24 11:15:10;;;;;;;12.05;2.17;;;17.30;68.80;;;;;;4990534;28;20030;-83
2023/05/24 11:18:13;;;;;;;13.15;2.13;;;17.40;68.50;;;;;;4991711;28;20027;-82
2023/05/24 11:20:41;;;;;;;10.63;1.98;;;17.70;67.80;;;;;;4992867;28;20339;-84
2023/05/24 11:23:08;;;;;;;8.88;2.25;;;18.10;67.50;;;;;;4992168;28;20034;-82
2023/05/24 11:25:36;;;;;;;8.15;2.10;;;18.60;67.00;;;;;;4995112;28;20089;-81
2023/05/24 11:28:03;;;;;;;6.13;1.70;;;18.90;66.10;;;;;;4980468;28;20097;-83
2023/05/24 11:30:31;;;;;;;7.40;1.67;;;19.20;65.30;;;;;;4996453;28;20109;-83
2023/05/24 11:32:57;;;;;;;6.18;1.67;;;19.40;64.20;;;;;;4996481;28;20474;-83
2023/05/24 11:35:29;;;;;;;11.32;2.30;;;19.50;63.60;;;;;;4997321;28;20027;-84
2023/05/24 11:37:56;;;;;;;9.88;2.33;;;19.70;63.30;;;;;;4997407;28;20038;-83
2023/05/24 11:40:23;;;;;;;9.50;2.35;;;20.00;63.40;;;;;;4997284;28;20022;-84
2023/05/24 11:42:49;;;;;;;6.43;1.35;;;20.30;62.70;;;;;;4999526;28;20037;-83
2023/05/24 11:45:17;;;;;;;8.07;1.73;;;20.70;62.40;;;;;;5015574;28;20053;-83
2023/05/24 11:47:43;;;;;;;8.63;1.90;;;20.90;60.70;;;;;;5017005;28;20022;-82
2023/05/24 11:50:09;;;;;;;6.93;1.45;;;21.20;60.00;;;;;;5032311;28;20498;-83
2023/05/24 11:52:39;;;;;;;9.30;1.90;;;21.40;58.50;;;;;;5032062;28;20103;-82
2023/05/24 11:55:06;;;;;;;8.80;2.20;;;21.40;57.60;;;;;;5015510;28;20018;-82
2023/05/24 11:57:39;;;;;;;10.98;2.38;;;21.20;56.40;;;;;;5015327;28;20552;-83
2023/05/24 12:00:10;;;;;;;8.93;1.65;;;20.90;55.90;;;;;;5016744;28;20036;-82
2023/05/24 12:02:36;;;;;;;7.20;2.10;;;20.60;56.10;;;;;;5015546;28;20030;-84
2023/05/24 12:05:10;;;;;;;8.27;2.08;;;20.50;56.90;;;;;;5031852;28;20191;-82
2023/05/24 12:07:36;;;;;;;8.40;1.67;;;20.80;57.50;;;;;;5015279;28;20026;-80
2023/05/24 12:10:03;;;;;;;9.20;1.92;;;21.40;57.40;;;;;;5016502;28;20033;-84
2023/05/24 12:12:29;;;;;;;10.15;1.58;;;21.80;56.60;;;;;;5016474;28;20026;-84
2023/05/24 12:14:55;;;;;;;9.60;1.92;;;22.10;56.00;;;;;;5016480;28;20394;-82
2023/05/24 12:17:21;;;;;;;9.63;2.20;;;22.20;55.10;;;;;;5016347;28;20030;-82
2023/05/24 12:19:53;;;;;;;7.38;1.80;;;22.10;54.40;;;;;;5016329;28;20418;-82
2023/05/24 12:22:25;;;;;;;10.18;2.00;;;22.00;54.40;;;;;;5014869;28;20064;-82
2023/05/24 12:24:51;;;;;;;7.68;1.80;;;22.30;54.30;;;;;;5030843;28;20068;-84
2023/05/24 12:27:17;;;;;;;6.07;1.48;;;22.50;54.00;;;;;;5016335;28;20033;-83
2023/05/24 12:29:42;;;;;;;6.03;1.52;;;22.60;53.50;;;;;;5016269;28;20101;-83
2023/05/24 12:32:11;;;;;;;7.20;1.80;;;22.40;53.20;;;;;;5031383;28;20113;-82
2023/05/24 12:34:40;;;;;;;13.63;2.70;;;22.20;53.00;;;;;;5016195;28;20014;-82
2023/05/24 12:37:08;;;;;;;11.85;2.22;;;21.80;52.40;;;;;;5015584;28;20018;-81
2023/05/24 12:39:36;;;;;;;14.65;3.13;;;21.40;53.20;;;;;;5016040;28;20038;-83
2023/05/24 12:42:03;;;;;;;6.60;1.55;;;21.30;53.80;;;;;;5015998;28;20033;-82
2023/05/24 12:44:30;;;;;;;9.30;1.75;;;21.80;54.50;;;;;;5015834;28;20034;-82
2023/05/24 12:46:57;;;;;;;6.75;1.58;;;22.00;53.40;;;;;;5015793;28;20034;-83